Time;durP1;ratioP1;P1;durP2;ratioP2;P2;SDS_P1;SDS_P2;PMS_P1;PMS_P2;Temp;Humidity;BMP_temperature;BMP_pressure;BME280_temperature;BME280_humidity;BME280_pressure;Samples;Min_cycle;Max_cycle;Signal;HPM_P1;HPM_P2
2022/07/29 00:00:02;;;;;;;;;;;22.00;42.70;;;;;;492071;240;1056;-49
2022/07/29 00:02:04;;;;;;;;;;;22.00;42.70;;;;;;491948;240;1038;-49
2022/07/29 00:04:05;;;;;;;;;;;22.00;42.80;;;;;;491818;240;1081;-49
2022/07/29 00:06:06;;;;;;;;;;;22.00;42.80;;;;;;491934;240;1206;-50
2022/07/29 00:08:08;;;;;;;;;;;22.00;42.80;;;;;;491892;240;1272;-49
2022/07/29 00:10:09;;;;;;;;;;;22.00;42.80;;;;;;491605;240;2180;-49
2022/07/29 00:12:10;;;;;;;;;;;22.00;42.70;;;;;;492062;240;1038;-50
2022/07/29 00:14:12;;;;;;;;;;;22.00;42.80;;;;;;492112;240;1097;-49
2022/07/29 00:16:13;;;;;;;;;;;22.00;42.70;;;;;;492099;240;1317;-50
2022/07/29 00:18:14;;;;;;;;;;;22.00;42.70;;;;;;492005;240;1158;-49
2022/07/29 00:20:15;;;;;;;;;;;22.00;42.70;;;;;;491835;240;1223;-49
2022/07/29 00:22:17;;;;;;;;;;;22.00;42.60;;;;;;492045;240;1339;-50
2022/07/29 00:24:18;;;;;;;;;;;22.00;42.70;;;;;;491604;240;1301;-50
2022/07/29 00:26:20;;;;;;;;;;;22.00;42.70;;;;;;492039;240;1226;-49
2022/07/29 00:28:21;;;;;;;;;;;22.00;42.80;;;;;;491687;240;1160;-50
2022/07/29 00:30:22;;;;;;;;;;;22.00;42.80;;;;;;491585;240;2117;-49
2022/07/29 00:32:23;;;;;;;;;;;22.00;42.70;;;;;;491581;240;1119;-50
2022/07/29 00:36:45;;;;;;;;;;;22.00;42.70;;;;;;491494;242;1206;-49
2022/07/29 00:38:46;;;;;;;;;;;22.00;42.70;;;;;;491734;240;1394;-49
2022/07/29 00:40:47;;;;;;;;;;;22.00;42.70;;;;;;491799;240;1513;-50
2022/07/29 00:42:48;;;;;;;;;;;22.00;42.80;;;;;;491622;240;1328;-49
2022/07/29 00:44:50;;;;;;;;;;;22.00;42.80;;;;;;491745;240;1243;-50
2022/07/29 00:46:51;;;;;;;;;;;22.00;42.70;;;;;;491573;240;1268;-50
2022/07/29 00:48:52;;;;;;;;;;;22.00;42.80;;;;;;492054;240;1152;-50
2022/07/29 00:50:54;;;;;;;;;;;22.00;42.80;;;;;;491858;240;2125;-49
2022/07/29 00:52:55;;;;;;;;;;;22.00;42.80;;;;;;491508;240;1178;-49
2022/07/29 00:54:56;;;;;;;;;;;22.00;42.70;;;;;;491625;240;1258;-50
2022/07/29 00:56:58;;;;;;;;;;;22.00;42.70;;;;;;491639;240;1152;-49
2022/07/29 00:58:59;;;;;;;;;;;22.00;42.80;;;;;;491766;240;1239;-50
2022/07/29 01:01:00;;;;;;;;;;;22.00;42.70;;;;;;492022;240;1190;-50
2022/07/29 01:03:02;;;;;;;;;;;22.00;42.60;;;;;;491644;240;1176;-50
2022/07/29 01:05:03;;;;;;;;;;;22.00;42.70;;;;;;491950;240;1251;-49
2022/07/29 01:07:04;;;;;;;;;;;22.00;42.70;;;;;;491834;240;1171;-49
2022/07/29 01:09:06;;;;;;;;;;;22.00;42.70;;;;;;491693;240;1231;-49
2022/07/29 01:11:07;;;;;;;;;;;22.00;42.70;;;;;;492017;240;2117;-49
2022/07/29 01:13:08;;;;;;;;;;;22.00;42.70;;;;;;491827;240;1011;-49
2022/07/29 01:15:10;;;;;;;;;;;22.00;42.70;;;;;;491896;240;1043;-49
2022/07/29 01:17:11;;;;;;;;;;;22.00;42.70;;;;;;492068;240;1187;-49
2022/07/29 01:19:12;;;;;;;;;;;22.00;42.80;;;;;;492069;240;1029;-49
2022/07/29 01:21:14;;;;;;;;;;;22.00;42.70;;;;;;491958;240;1081;-49
2022/07/29 01:23:15;;;;;;;;;;;22.00;42.70;;;;;;491617;240;1162;-49
2022/07/29 01:25:16;;;;;;;;;;;22.00;42.70;;;;;;491700;240;1142;-49
2022/07/29 01:27:18;;;;;;;;;;;21.90;42.70;;;;;;492076;240;1301;-50
2022/07/29 01:29:19;;;;;;;;;;;22.00;42.70;;;;;;491588;240;2132;-50
2022/07/29 01:31:20;;;;;;;;;;;22.00;42.70;;;;;;491915;240;2203;-49
2022/07/29 01:35:42;;;;;;;;;;;22.00;42.70;;;;;;491572;240;1189;-49
2022/07/29 01:37:43;;;;;;;;;;;22.00;42.70;;;;;;491793;240;1288;-49
2022/07/29 01:39:45;;;;;;;;;;;22.00;42.70;;;;;;491782;240;1233;-50
2022/07/29 01:41:46;;;;;;;;;;;22.00;42.70;;;;;;491711;240;1232;-49
2022/07/29 01:43:47;;;;;;;;;;;22.00;42.70;;;;;;491572;240;1279;-50
2022/07/29 01:45:49;;;;;;;;;;;22.00;42.70;;;;;;491554;240;1202;-49
2022/07/29 01:47:50;;;;;;;;;;;22.00;42.70;;;;;;491988;240;1230;-49
2022/07/29 01:49:51;;;;;;;;;;;22.00;42.70;;;;;;491775;240;2133;-50
2022/07/29 01:51:53;;;;;;;;;;;22.00;42.70;;;;;;492026;240;1025;-49
2022/07/29 01:53:54;;;;;;;;;;;22.00;42.70;;;;;;491665;240;1141;-50
2022/07/29 01:55:55;;;;;;;;;;;22.00;42.80;;;;;;492098;240;1242;-50
2022/07/29 01:57:57;;;;;;;;;;;22.00;42.80;;;;;;491775;240;1051;-50
2022/07/29 01:59:58;;;;;;;;;;;22.00;42.90;;;;;;492078;240;1028;-49
2022/07/29 02:02:00;;;;;;;;;;;22.00;42.90;;;;;;492070;240;1094;-49
2022/07/29 02:04:01;;;;;;;;;;;22.00;43.00;;;;;;491593;240;1366;-49
2022/07/29 02:06:02;;;;;;;;;;;22.00;43.00;;;;;;491673;240;1226;-49
2022/07/29 02:08:04;;;;;;;;;;;22.00;43.10;;;;;;491846;240;1220;-49
2022/07/29 02:10:05;;;;;;;;;;;22.00;43.20;;;;;;491625;240;2144;-50
2022/07/29 02:12:07;;;;;;;;;;;22.00;43.20;;;;;;491794;240;1198;-50
2022/07/29 02:14:08;;;;;;;;;;;22.00;43.40;;;;;;491756;240;1259;-49
2022/07/29 02:16:09;;;;;;;;;;;22.00;43.30;;;;;;491771;240;1167;-50
2022/07/29 02:18:11;;;;;;;;;;;22.00;43.30;;;;;;491638;240;1551;-49
2022/07/29 02:20:12;;;;;;;;;;;22.00;43.40;;;;;;492104;240;1191;-50
2022/07/29 02:22:13;;;;;;;;;;;22.00;43.50;;;;;;491576;240;1221;-50
2022/07/29 02:24:15;;;;;;;;;;;22.00;43.50;;;;;;491938;240;1225;-49
2022/07/29 02:26:16;;;;;;;;;;;22.00;43.50;;;;;;492060;240;1137;-49
2022/07/29 02:28:17;;;;;;;;;;;22.00;43.60;;;;;;491851;240;1256;-49
2022/07/29 02:30:19;;;;;;;;;;;22.00;43.60;;;;;;492041;240;2125;-49
2022/07/29 02:32:20;;;;;;;;;;;22.00;43.70;;;;;;491876;240;1194;-49
2022/07/29 02:34:21;;;;;;;;;;;22.00;43.60;;;;;;492052;240;1312;-49
2022/07/29 02:36:23;;;;;;;;;;;22.00;43.70;;;;;;491741;240;1175;-49
2022/07/29 02:40:43;;;;;;;;;;;22.00;43.80;;;;;;491633;242;1147;-49
2022/07/29 02:42:46;;;;;;;;;;;22.00;43.90;;;;;;491647;240;1394;-49
2022/07/29 02:44:46;;;;;;;;;;;22.00;43.90;;;;;;491632;240;2111;-50
2022/07/29 02:46:47;;;;;;;;;;;22.00;43.90;;;;;;491937;240;1248;-49
2022/07/29 02:48:49;;;;;;;;;;;22.00;43.90;;;;;;491834;240;1049;-50
2022/07/29 02:50:50;;;;;;;;;;;22.00;44.00;;;;;;491880;240;2106;-49
2022/07/29 02:52:51;;;;;;;;;;;22.00;44.00;;;;;;491710;240;1291;-50
2022/07/29 02:54:52;;;;;;;;;;;22.00;44.00;;;;;;491982;240;1221;-50
2022/07/29 02:56:55;;;;;;;;;;;22.00;44.00;;;;;;492077;240;1261;-50
2022/07/29 02:58:55;;;;;;;;;;;22.00;44.00;;;;;;491622;240;2469;-49
2022/07/29 03:00:56;;;;;;;;;;;22.00;44.10;;;;;;492067;240;1242;-49
2022/07/29 03:02:58;;;;;;;;;;;22.00;44.10;;;;;;492091;240;1234;-49
2022/07/29 03:04:59;;;;;;;;;;;22.00;44.10;;;;;;491630;240;1204;-50
2022/07/29 03:07:00;;;;;;;;;;;22.00;44.20;;;;;;491639;240;1191;-49
2022/07/29 03:09:02;;;;;;;;;;;22.00;44.30;;;;;;492026;240;1296;-50
2022/07/29 03:11:03;;;;;;;;;;;22.00;44.30;;;;;;491736;240;2164;-49
2022/07/29 03:13:04;;;;;;;;;;;22.00;44.30;;;;;;492028;240;1022;-50
2022/07/29 03:15:06;;;;;;;;;;;22.00;44.40;;;;;;491628;240;958;-49
2022/07/29 03:17:07;;;;;;;;;;;22.00;44.40;;;;;;492081;240;1232;-50
2022/07/29 03:19:09;;;;;;;;;;;22.00;44.50;;;;;;491992;240;1064;-50
2022/07/29 03:21:10;;;;;;;;;;;22.00;44.40;;;;;;491635;240;1145;-49
2022/07/29 03:23:11;;;;;;;;;;;22.00;44.40;;;;;;491672;240;1039;-50
2022/07/29 03:25:13;;;;;;;;;;;22.00;44.40;;;;;;491587;240;1271;-49
2022/07/29 03:27:14;;;;;;;;;;;22.00;44.50;;;;;;492066;240;1181;-49
2022/07/29 03:29:15;;;;;;;;;;;22.00;44.50;;;;;;491960;240;1033;-50
2022/07/29 03:31:17;;;;;;;;;;;22.00;44.60;;;;;;491785;240;2133;-50
2022/07/29 03:33:18;;;;;;;;;;;22.00;44.70;;;;;;492026;240;1278;-49
2022/07/29 03:35:19;;;;;;;;;;;22.00;44.70;;;;;;491733;240;1194;-49
2022/07/29 03:37:21;;;;;;;;;;;22.00;44.70;;;;;;491595;240;1212;-49
2022/07/29 03:39:22;;;;;;;;;;;21.90;44.70;;;;;;492064;240;1169;-50
2022/07/29 03:41:23;;;;;;;;;;;22.00;44.80;;;;;;491768;240;1261;-49
2022/07/29 03:43:25;;;;;;;;;;;22.00;44.70;;;;;;491538;240;1711;-49
2022/07/29 03:45:26;;;;;;;;;;;22.00;44.80;;;;;;491563;240;1774;-49
2022/07/29 03:47:28;;;;;;;;;;;22.00;44.80;;;;;;491788;240;1237;-49
2022/07/29 03:49:29;;;;;;;;;;;22.00;44.90;;;;;;491528;240;1232;-50
2022/07/29 03:51:30;;;;;;;;;;;22.00;44.90;;;;;;491483;240;2179;-49
2022/07/29 03:53:32;;;;;;;;;;;22.00;44.90;;;;;;492011;240;1041;-49
2022/07/29 03:55:33;;;;;;;;;;;22.00;44.90;;;;;;491720;240;1324;-50
2022/07/29 03:57:34;;;;;;;;;;;22.00;44.90;;;;;;491837;240;1188;-49
2022/07/29 03:59:35;;;;;;;;;;;22.00;44.90;;;;;;491547;240;1109;-49
2022/07/29 04:01:37;;;;;;;;;;;22.00;45.00;;;;;;491547;240;1229;-49
2022/07/29 04:03:38;;;;;;;;;;;22.00;45.00;;;;;;491498;240;1051;-49
2022/07/29 04:05:39;;;;;;;;;;;22.00;45.00;;;;;;491595;240;1099;-49
2022/07/29 04:07:41;;;;;;;;;;;22.00;45.00;;;;;;491704;240;1060;-50
2022/07/29 04:09:42;;;;;;;;;;;22.00;45.00;;;;;;491553;240;992;-50
2022/07/29 04:11:43;;;;;;;;;;;22.00;45.10;;;;;;491450;240;2204;-50
2022/07/29 04:13:45;;;;;;;;;;;22.00;45.10;;;;;;491494;240;1198;-50
2022/07/29 04:15:46;;;;;;;;;;;22.00;45.10;;;;;;491499;240;1051;-49
2022/07/29 04:17:47;;;;;;;;;;;22.00;45.10;;;;;;491731;240;1033;-49
2022/07/29 04:19:48;;;;;;;;;;;22.00;45.10;;;;;;491939;240;1111;-49
2022/07/29 04:21:50;;;;;;;;;;;22.00;45.10;;;;;;491418;240;1091;-49
2022/07/29 04:23:51;;;;;;;;;;;22.00;45.20;;;;;;491693;240;2388;-50
2022/07/29 04:25:52;;;;;;;;;;;22.00;45.30;;;;;;491709;240;1401;-49
2022/07/29 04:28:03;;;;;;;;;;;22.00;45.30;;;;;;491754;240;1046;-49
2022/07/29 04:30:05;;;;;;;;;;;22.00;45.30;;;;;;491565;240;1071;-50
2022/07/29 04:32:05;;;;;;;;;;;22.00;45.30;;;;;;491456;240;2126;-50
2022/07/29 04:34:07;;;;;;;;;;;21.90;45.30;;;;;;491474;240;1058;-49
2022/07/29 04:36:10;;;;;;;;;;;22.00;45.30;;;;;;491677;240;1180;-50
2022/07/29 04:38:09;;;;;;;;;;;22.00;45.40;;;;;;491350;240;1893;-49
2022/07/29 04:40:11;;;;;;;;;;;22.00;45.40;;;;;;491448;240;1273;-49
2022/07/29 04:42:12;;;;;;;;;;;21.90;45.40;;;;;;491392;240;1594;-49
2022/07/29 04:44:13;;;;;;;;;;;21.90;45.40;;;;;;491449;240;1088;-49
2022/07/29 04:46:15;;;;;;;;;;;21.90;45.50;;;;;;491399;240;1112;-50
2022/07/29 04:48:16;;;;;;;;;;;22.00;45.60;;;;;;491417;240;1060;-49
2022/07/29 04:50:17;;;;;;;;;;;21.90;45.50;;;;;;491492;240;1135;-49
2022/07/29 04:52:19;;;;;;;;;;;21.90;45.50;;;;;;491841;240;2180;-49
2022/07/29 04:54:20;;;;;;;;;;;22.00;45.50;;;;;;491710;240;1166;-49
2022/07/29 04:56:21;;;;;;;;;;;21.90;45.50;;;;;;491869;240;1224;-50
2022/07/29 04:58:23;;;;;;;;;;;22.00;45.50;;;;;;491423;240;1497;-49
2022/07/29 05:00:24;;;;;;;;;;;22.00;45.50;;;;;;491624;240;1133;-50
2022/07/29 05:02:26;;;;;;;;;;;22.00;45.50;;;;;;491444;240;1268;-49
2022/07/29 05:04:27;;;;;;;;;;;22.00;45.50;;;;;;491697;240;1195;-50
2022/07/29 05:06:28;;;;;;;;;;;22.00;45.60;;;;;;491645;240;1267;-49
2022/07/29 05:08:30;;;;;;;;;;;22.00;45.60;;;;;;491410;240;1473;-49
2022/07/29 05:10:31;;;;;;;;;;;22.00;45.60;;;;;;491772;240;1188;-50
2022/07/29 05:12:32;;;;;;;;;;;22.00;45.60;;;;;;491587;240;2195;-50
2022/07/29 05:14:34;;;;;;;;;;;22.00;45.60;;;;;;491429;240;1104;-50
2022/07/29 05:16:35;;;;;;;;;;;22.00;45.60;;;;;;491398;240;1259;-50
2022/07/29 05:18:36;;;;;;;;;;;22.00;45.70;;;;;;491409;240;1206;-49
2022/07/29 05:20:38;;;;;;;;;;;22.00;45.70;;;;;;491404;240;1228;-50
2022/07/29 05:22:39;;;;;;;;;;;22.00;45.70;;;;;;491488;240;1058;-49
2022/07/29 05:24:41;;;;;;;;;;;22.00;45.80;;;;;;491441;240;1197;-50
2022/07/29 05:26:42;;;;;;;;;;;22.00;45.80;;;;;;491320;240;1222;-49
2022/07/29 05:28:43;;;;;;;;;;;22.00;45.80;;;;;;491306;240;1036;-49
2022/07/29 05:30:45;;;;;;;;;;;21.90;45.70;;;;;;491636;240;1257;-50
2022/07/29 05:32:46;;;;;;;;;;;22.00;45.80;;;;;;491479;240;2187;-50
2022/07/29 05:34:47;;;;;;;;;;;22.00;45.90;;;;;;491785;240;1224;-49
2022/07/29 05:36:49;;;;;;;;;;;22.00;45.90;;;;;;491448;240;1224;-50
2022/07/29 05:38:51;;;;;;;;;;;22.00;45.80;;;;;;491438;240;1219;-50
2022/07/29 05:40:52;;;;;;;;;;;22.00;45.90;;;;;;491464;240;2009;-50
2022/07/29 05:42:53;;;;;;;;;;;22.00;45.90;;;;;;491560;240;1138;-49
2022/07/29 05:44:55;;;;;;;;;;;22.00;45.80;;;;;;491513;240;1048;-49
2022/07/29 05:46:56;;;;;;;;;;;22.00;45.90;;;;;;491722;240;1210;-49
2022/07/29 05:48:58;;;;;;;;;;;22.00;45.90;;;;;;491353;240;1073;-50
2022/07/29 05:50:59;;;;;;;;;;;22.00;45.90;;;;;;491580;240;1066;-49
2022/07/29 05:53:00;;;;;;;;;;;22.00;45.90;;;;;;491440;240;2184;-50
2022/07/29 05:55:04;;;;;;;;;;;22.00;46.00;;;;;;491371;240;1078;-49
2022/07/29 05:57:04;;;;;;;;;;;22.00;46.00;;;;;;491359;240;1839;-50
2022/07/29 05:59:05;;;;;;;;;;;22.00;46.00;;;;;;491308;240;1028;-49
2022/07/29 06:01:06;;;;;;;;;;;21.90;46.00;;;;;;491167;240;1070;-50
2022/07/29 06:03:08;;;;;;;;;;;21.90;46.00;;;;;;491290;240;1250;-49
2022/07/29 06:05:09;;;;;;;;;;;22.00;46.10;;;;;;491429;240;1097;-49
2022/07/29 06:07:11;;;;;;;;;;;21.90;46.00;;;;;;491500;240;1216;-49
2022/07/29 06:09:13;;;;;;;;;;;21.90;46.10;;;;;;491541;240;1136;-50
2022/07/29 06:11:14;;;;;;;;;;;21.90;46.10;;;;;;491379;240;1175;-49
2022/07/29 06:13:16;;;;;;;;;;;22.00;46.10;;;;;;491161;240;2252;-49
2022/07/29 06:15:17;;;;;;;;;;;22.00;46.20;;;;;;491369;240;1161;-50
2022/07/29 06:17:19;;;;;;;;;;;22.00;46.20;;;;;;491450;240;1163;-49
2022/07/29 06:19:20;;;;;;;;;;;22.00;46.30;;;;;;491729;240;1199;-49
2022/07/29 06:21:21;;;;;;;;;;;22.00;46.30;;;;;;491535;240;1238;-50
2022/07/29 06:23:22;;;;;;;;;;;22.00;46.30;;;;;;491272;240;1205;-50
2022/07/29 06:25:24;;;;;;;;;;;22.00;46.40;;;;;;491159;240;1221;-49
2022/07/29 06:27:25;;;;;;;;;;;22.00;46.40;;;;;;491429;240;1223;-49
2022/07/29 06:29:26;;;;;;;;;;;22.00;46.40;;;;;;491362;240;1185;-49
2022/07/29 06:31:28;;;;;;;;;;;22.00;46.50;;;;;;491264;240;2195;-49
2022/07/29 06:33:29;;;;;;;;;;;22.00;46.60;;;;;;491326;240;1079;-49
2022/07/29 06:35:30;;;;;;;;;;;21.90;46.50;;;;;;491113;240;1105;-50
2022/07/29 06:37:32;;;;;;;;;;;22.00;46.60;;;;;;491131;240;1220;-49
2022/07/29 06:39:33;;;;;;;;;;;22.00;46.60;;;;;;491232;240;1098;-49
2022/07/29 06:41:35;;;;;;;;;;;22.00;46.60;;;;;;491438;240;1181;-50
2022/07/29 06:43:37;;;;;;;;;;;22.00;46.60;;;;;;491100;240;1228;-50
2022/07/29 06:45:40;;;;;;;;;;;22.00;46.60;;;;;;491090;240;1554;-50
2022/07/29 06:47:38;;;;;;;;;;;22.00;46.60;;;;;;491201;240;2148;-50
2022/07/29 06:49:40;;;;;;;;;;;22.00;46.70;;;;;;491071;240;1062;-49
2022/07/29 06:51:41;;;;;;;;;;;22.00;46.70;;;;;;491010;240;2183;-49
2022/07/29 06:53:42;;;;;;;;;;;22.00;46.70;;;;;;491120;240;1057;-50
2022/07/29 06:55:44;;;;;;;;;;;22.00;46.80;;;;;;491115;240;1073;-49
2022/07/29 06:57:46;;;;;;;;;;;22.00;46.80;;;;;;491153;240;1419;-49
2022/07/29 06:59:47;;;;;;;;;;;22.00;46.90;;;;;;491043;240;1468;-50
2022/07/29 07:01:48;;;;;;;;;;;22.00;46.90;;;;;;491143;240;1159;-49
2022/07/29 07:03:49;;;;;;;;;;;22.00;46.80;;;;;;491106;240;1068;-50
2022/07/29 07:05:51;;;;;;;;;;;22.00;46.90;;;;;;491011;240;1292;-50
2022/07/29 07:07:52;;;;;;;;;;;22.00;46.90;;;;;;490989;240;1080;-49
2022/07/29 07:09:53;;;;;;;;;;;22.00;46.90;;;;;;491189;240;1089;-50
2022/07/29 07:11:55;;;;;;;;;;;22.00;46.90;;;;;;491019;240;2208;-50
2022/07/29 07:13:56;;;;;;;;;;;22.00;47.00;;;;;;490936;240;1352;-49
2022/07/29 07:15:57;;;;;;;;;;;22.00;47.00;;;;;;490860;240;1129;-49
2022/07/29 07:17:59;;;;;;;;;;;22.00;47.00;;;;;;490914;240;1074;-50
2022/07/29 07:20:00;;;;;;;;;;;22.00;47.00;;;;;;491037;240;1084;-49
2022/07/29 07:22:01;;;;;;;;;;;22.00;47.10;;;;;;490940;240;1504;-50
2022/07/29 07:24:03;;;;;;;;;;;22.00;47.10;;;;;;491200;240;1217;-49
2022/07/29 07:26:05;;;;;;;;;;;22.00;47.10;;;;;;491095;240;1167;-50
2022/07/29 07:28:06;;;;;;;;;;;22.00;47.20;;;;;;491136;240;1359;-49
2022/07/29 07:30:08;;;;;;;;;;;22.00;47.20;;;;;;490970;240;1207;-50
2022/07/29 07:32:08;;;;;;;;;;;22.00;47.20;;;;;;490885;240;2188;-49
2022/07/29 07:34:10;;;;;;;;;;;22.00;47.20;;;;;;490766;240;1292;-49
2022/07/29 07:36:11;;;;;;;;;;;22.00;47.30;;;;;;490697;240;1618;-49
2022/07/29 07:38:12;;;;;;;;;;;22.00;47.30;;;;;;490834;240;1177;-49
2022/07/29 07:40:14;;;;;;;;;;;22.00;47.30;;;;;;490528;240;1633;-50
2022/07/29 07:42:15;;;;;;;;;;;22.00;47.40;;;;;;490836;240;1137;-49
2022/07/29 07:44:16;;;;;;;;;;;22.00;47.30;;;;;;490809;240;1163;-49
2022/07/29 07:46:17;;;;;;;;;;;22.00;47.30;;;;;;490811;240;1241;-50
2022/07/29 07:48:19;;;;;;;;;;;22.00;47.40;;;;;;491323;240;1220;-50
2022/07/29 07:50:20;;;;;;;;;;;22.00;47.40;;;;;;490565;240;1189;-49
2022/07/29 07:52:21;;;;;;;;;;;22.00;47.50;;;;;;490648;240;2188;-49
2022/07/29 07:54:23;;;;;;;;;;;22.00;47.50;;;;;;490800;240;1198;-49
2022/07/29 07:56:24;;;;;;;;;;;22.00;47.50;;;;;;490896;240;1289;-49
2022/07/29 07:58:25;;;;;;;;;;;22.00;47.60;;;;;;490883;240;1192;-49
2022/07/29 08:00:27;;;;;;;;;;;22.00;47.60;;;;;;490701;240;1352;-49
2022/07/29 08:02:28;;;;;;;;;;;22.00;47.60;;;;;;491057;240;1120;-49
2022/07/29 08:04:29;;;;;;;;;;;22.00;47.60;;;;;;491186;240;1141;-49
2022/07/29 08:06:31;;;;;;;;;;;22.00;47.60;;;;;;490985;240;1267;-49
2022/07/29 08:08:32;;;;;;;;;;;22.00;47.70;;;;;;490925;240;1297;-49
2022/07/29 08:12:52;;;;;;;;;;;22.00;47.60;;;;;;491039;242;2184;-49
2022/07/29 08:14:54;;;;;;;;;;;22.10;47.60;;;;;;490794;240;1269;-49
2022/07/29 08:16:55;;;;;;;;;;;22.10;47.50;;;;;;490708;240;1175;-49
2022/07/29 08:18:57;;;;;;;;;;;22.10;47.40;;;;;;490944;240;1347;-49
2022/07/29 08:20:58;;;;;;;;;;;22.10;47.40;;;;;;490956;240;1089;-49
2022/07/29 08:23:00;;;;;;;;;;;22.10;47.30;;;;;;491205;240;1489;-49
2022/07/29 08:25:01;;;;;;;;;;;22.10;47.20;;;;;;490745;240;1051;-49
2022/07/29 08:27:02;;;;;;;;;;;22.10;47.20;;;;;;490955;240;1098;-49
2022/07/29 08:29:04;;;;;;;;;;;22.10;47.20;;;;;;490886;239;1204;-49
2022/07/29 08:31:05;;;;;;;;;;;22.10;47.20;;;;;;490756;240;1077;-49
2022/07/29 08:33:06;;;;;;;;;;;22.10;47.10;;;;;;490849;240;2203;-50
2022/07/29 08:35:08;;;;;;;;;;;22.10;47.10;;;;;;490951;240;1205;-49
2022/07/29 08:37:09;;;;;;;;;;;22.10;47.10;;;;;;490887;240;1181;-49
2022/07/29 08:39:10;;;;;;;;;;;22.10;47.00;;;;;;491041;240;1071;-49
2022/07/29 08:41:12;;;;;;;;;;;22.10;47.00;;;;;;490964;240;1079;-49
2022/07/29 08:43:13;;;;;;;;;;;22.10;47.00;;;;;;490986;240;1021;-50
2022/07/29 08:45:14;;;;;;;;;;;22.10;46.90;;;;;;490990;240;1218;-49
2022/07/29 08:47:16;;;;;;;;;;;22.00;46.90;;;;;;490916;240;1275;-50
2022/07/29 08:49:17;;;;;;;;;;;22.10;46.90;;;;;;491025;240;1077;-50
2022/07/29 08:51:18;;;;;;;;;;;22.10;46.90;;;;;;490935;240;1301;-49
2022/07/29 08:53:20;;;;;;;;;;;22.10;46.90;;;;;;491101;240;2125;-49
2022/07/29 08:55:21;;;;;;;;;;;22.00;46.80;;;;;;491008;240;1027;-49
2022/07/29 08:57:22;;;;;;;;;;;22.00;46.80;;;;;;490925;240;1124;-49
2022/07/29 08:59:24;;;;;;;;;;;22.00;46.80;;;;;;491165;240;1138;-49
2022/07/29 09:01:25;;;;;;;;;;;22.00;46.80;;;;;;490865;240;1109;-50
2022/07/29 09:03:26;;;;;;;;;;;22.00;46.70;;;;;;490802;240;1074;-50
2022/07/29 09:05:28;;;;;;;;;;;22.00;46.70;;;;;;490846;240;1153;-49
2022/07/29 09:07:29;;;;;;;;;;;22.00;46.60;;;;;;490895;240;1359;-50
2022/07/29 09:09:30;;;;;;;;;;;22.00;46.60;;;;;;490669;240;1145;-50
2022/07/29 09:11:32;;;;;;;;;;;22.00;46.60;;;;;;490775;240;1083;-49
2022/07/29 09:13:33;;;;;;;;;;;22.00;46.60;;;;;;490901;240;2424;-49
2022/07/29 09:15:35;;;;;;;;;;;22.00;46.60;;;;;;491041;240;1073;-49
2022/07/29 09:17:36;;;;;;;;;;;22.00;46.60;;;;;;490955;240;1352;-49
2022/07/29 09:19:37;;;;;;;;;;;22.00;46.60;;;;;;490901;240;1073;-49
2022/07/29 09:23:58;;;;;;;;;;;22.00;46.60;;;;;;490958;242;1361;-49
2022/07/29 09:25:59;;;;;;;;;;;22.10;46.60;;;;;;491093;240;1420;-49
2022/07/29 09:28:01;;;;;;;;;;;22.00;46.50;;;;;;491109;240;1196;-49
2022/07/29 09:30:02;;;;;;;;;;;22.00;46.50;;;;;;490994;240;1281;-49
2022/07/29 09:32:03;;;;;;;;;;;22.00;46.40;;;;;;490914;240;1177;-50
2022/07/29 09:34:05;;;;;;;;;;;22.00;46.40;;;;;;490856;240;2188;-50
2022/07/29 09:36:06;;;;;;;;;;;22.00;46.40;;;;;;490760;240;1240;-49
2022/07/29 09:38:07;;;;;;;;;;;22.00;46.30;;;;;;490867;240;1164;-49
2022/07/29 09:40:09;;;;;;;;;;;22.00;46.30;;;;;;490775;240;1098;-50
2022/07/29 09:42:10;;;;;;;;;;;22.00;46.30;;;;;;490675;240;1139;-49
2022/07/29 09:44:11;;;;;;;;;;;22.00;46.30;;;;;;490908;240;1190;-49
2022/07/29 09:46:13;;;;;;;;;;;22.00;46.30;;;;;;491026;240;1186;-50
2022/07/29 09:48:14;;;;;;;;;;;22.00;46.20;;;;;;491021;240;1530;-50
2022/07/29 09:50:15;;;;;;;;;;;22.00;46.30;;;;;;491176;240;1449;-50
2022/07/29 09:52:17;;;;;;;;;;;22.00;46.30;;;;;;491048;240;1278;-49
2022/07/29 09:54:18;;;;;;;;;;;22.00;46.30;;;;;;490851;240;2129;-49
2022/07/29 09:56:19;;;;;;;;;;;22.00;46.30;;;;;;490832;240;1091;-49
2022/07/29 09:58:21;;;;;;;;;;;22.00;46.20;;;;;;490802;240;1091;-49
2022/07/29 10:00:25;;;;;;;;;;;22.00;46.20;;;;;;491205;240;1156;-50
2022/07/29 10:02:24;;;;;;;;;;;22.00;46.20;;;;;;491043;240;2198;-49
2022/07/29 10:04:25;;;;;;;;;;;22.00;46.20;;;;;;491087;240;1075;-49
2022/07/29 10:06:26;;;;;;;;;;;22.00;46.20;;;;;;490855;240;1087;-49
2022/07/29 10:08:28;;;;;;;;;;;22.00;46.10;;;;;;490848;240;1093;-49
2022/07/29 10:10:29;;;;;;;;;;;22.00;46.10;;;;;;490775;240;1151;-49
2022/07/29 10:12:30;;;;;;;;;;;22.00;46.20;;;;;;490785;240;1075;-50
2022/07/29 10:14:32;;;;;;;;;;;22.00;46.10;;;;;;490847;240;2181;-49
2022/07/29 10:16:33;;;;;;;;;;;22.00;46.20;;;;;;490870;240;1245;-49
2022/07/29 10:18:35;;;;;;;;;;;22.00;46.20;;;;;;490971;240;1286;-48
2022/07/29 10:20:36;;;;;;;;;;;22.00;46.20;;;;;;491059;240;1519;-49
2022/07/29 10:22:37;;;;;;;;;;;22.00;46.10;;;;;;490901;240;1247;-50
2022/07/29 10:24:38;;;;;;;;;;;22.00;46.10;;;;;;491190;240;1548;-50
2022/07/29 10:26:40;;;;;;;;;;;22.00;46.20;;;;;;490989;240;1563;-49
2022/07/29 10:28:41;;;;;;;;;;;22.00;46.20;;;;;;490969;240;1319;-49
2022/07/29 10:30:44;;;;;;;;;;;22.00;46.20;;;;;;490846;240;1261;-50
2022/07/29 10:32:44;;;;;;;;;;;22.00;46.10;;;;;;490835;240;1290;-49
2022/07/29 10:34:45;;;;;;;;;;;22.00;46.20;;;;;;491074;240;2180;-50
2022/07/29 10:36:47;;;;;;;;;;;22.00;46.20;;;;;;491008;240;1175;-50
2022/07/29 10:38:48;;;;;;;;;;;22.00;46.10;;;;;;490986;240;1388;-50
2022/07/29 10:43:09;;;;;;;;;;;22.00;46.10;;;;;;491198;242;1013;-49
2022/07/29 10:45:10;;;;;;;;;;;22.00;46.00;;;;;;490901;240;1051;-50
2022/07/29 10:47:11;;;;;;;;;;;22.00;46.00;;;;;;490868;240;1205;-49
2022/07/29 10:49:14;;;;;;;;;;;22.00;46.00;;;;;;490980;240;1052;-49
2022/07/29 10:51:14;;;;;;;;;;;22.00;46.00;;;;;;490958;240;2206;-49
2022/07/29 10:53:15;;;;;;;;;;;22.00;46.00;;;;;;490951;240;2180;-49
2022/07/29 10:55:17;;;;;;;;;;;22.00;46.00;;;;;;491066;240;1026;-49
2022/07/29 10:57:19;;;;;;;;;;;22.00;46.00;;;;;;491090;240;1336;-50
2022/07/29 10:59:20;;;;;;;;;;;22.00;46.00;;;;;;491003;240;1060;-49
2022/07/29 11:01:21;;;;;;;;;;;22.00;46.10;;;;;;490917;240;1441;-50
2022/07/29 11:03:22;;;;;;;;;;;22.00;46.00;;;;;;491261;240;1020;-49
2022/07/29 11:05:24;;;;;;;;;;;22.00;46.00;;;;;;490995;240;1162;-49
2022/07/29 11:07:25;;;;;;;;;;;22.00;46.10;;;;;;490830;240;1083;-49
2022/07/29 11:09:26;;;;;;;;;;;22.00;46.00;;;;;;490882;240;1069;-49
2022/07/29 11:11:28;;;;;;;;;;;22.00;46.00;;;;;;490881;240;1276;-49
2022/07/29 11:13:29;;;;;;;;;;;22.00;46.00;;;;;;490917;240;2184;-49
2022/07/29 11:15:30;;;;;;;;;;;22.00;46.10;;;;;;490901;240;1159;-49
2022/07/29 11:17:32;;;;;;;;;;;22.00;46.00;;;;;;491005;240;1161;-49
2022/07/29 11:19:33;;;;;;;;;;;22.00;46.00;;;;;;491123;240;1246;-50
2022/07/29 11:21:34;;;;;;;;;;;22.00;46.00;;;;;;491032;240;1212;-49
2022/07/29 11:23:38;;;;;;;;;;;22.00;46.00;;;;;;491073;240;1236;-50
2022/07/29 11:25:37;;;;;;;;;;;22.00;46.00;;;;;;490920;240;2158;-49
2022/07/29 11:27:39;;;;;;;;;;;22.00;46.10;;;;;;491024;240;1179;-49
2022/07/29 11:29:40;;;;;;;;;;;22.00;46.10;;;;;;490953;240;1112;-50
2022/07/29 11:31:42;;;;;;;;;;;22.00;46.20;;;;;;491006;240;1224;-49
2022/07/29 11:33:43;;;;;;;;;;;22.00;46.20;;;;;;491040;240;2183;-50
2022/07/29 11:35:44;;;;;;;;;;;22.00;46.20;;;;;;491090;240;1690;-50
2022/07/29 11:37:46;;;;;;;;;;;22.00;46.20;;;;;;491034;240;1101;-50
2022/07/29 11:39:47;;;;;;;;;;;22.00;46.10;;;;;;491190;240;1128;-50
2022/07/29 11:41:48;;;;;;;;;;;22.00;46.10;;;;;;491203;240;1348;-50
2022/07/29 11:43:51;;;;;;;;;;;22.00;46.10;;;;;;491202;240;2401;-49
2022/07/29 11:45:51;;;;;;;;;;;22.00;46.10;;;;;;491179;240;2226;-50
2022/07/29 11:47:53;;;;;;;;;;;22.00;46.00;;;;;;491117;240;1180;-49
2022/07/29 11:49:54;;;;;;;;;;;22.00;46.00;;;;;;491185;240;1188;-50
2022/07/29 11:51:56;;;;;;;;;;;22.00;46.00;;;;;;491121;240;1179;-50
2022/07/29 11:53:57;;;;;;;;;;;22.00;46.00;;;;;;491027;240;2132;-49
2022/07/29 11:55:58;;;;;;;;;;;22.00;46.00;;;;;;490931;240;1147;-50
2022/07/29 11:58:00;;;;;;;;;;;22.00;45.90;;;;;;491242;240;1176;-50
2022/07/29 12:00:01;;;;;;;;;;;22.00;46.00;;;;;;490869;240;1061;-49
2022/07/29 12:02:02;;;;;;;;;;;22.00;45.90;;;;;;490924;240;1224;-49
2022/07/29 12:04:04;;;;;;;;;;;22.00;45.90;;;;;;491068;240;1054;-49
2022/07/29 12:06:05;;;;;;;;;;;22.00;45.90;;;;;;491277;240;1413;-50
2022/07/29 12:08:07;;;;;;;;;;;22.00;45.90;;;;;;491026;240;1095;-50
2022/07/29 12:10:08;;;;;;;;;;;22.00;45.90;;;;;;491203;240;1167;-49